sensor_id;sensor_type;location;lat;lon;timestamp;P1;durP1;ratioP1;P2;durP2;ratioP2
61308;SDS011;47188;55.644;37.772;2022-09-12T00:01:06;15.05;;;9.20;;
61308;SDS011;47188;55.644;37.772;2022-09-12T00:03:34;14.60;;;9.40;;
61308;SDS011;47188;55.644;37.772;2022-09-12T00:06:00;15.13;;;9.57;;
61308;SDS011;47188;55.644;37.772;2022-09-12T00:08:41;12.35;;;9.30;;
61308;SDS011;47188;55.644;37.772;2022-09-12T00:11:07;17.02;;;9.85;;
61308;SDS011;47188;55.644;37.772;2022-09-12T00:13:35;16.77;;;9.45;;
61308;SDS011;47188;55.644;37.772;2022-09-12T00:16:02;15.38;;;9.10;;
61308;SDS011;47188;55.644;37.772;2022-09-12T00:18:28;14.10;;;9.20;;
61308;SDS011;47188;55.644;37.772;2022-09-12T00:20:54;12.68;;;8.70;;
61308;SDS011;47188;55.644;37.772;2022-09-12T00:23:19;14.98;;;9.35;;
61308;SDS011;47188;55.644;37.772;2022-09-12T00:25:46;16.10;;;9.55;;
61308;SDS011;47188;55.644;37.772;2022-09-12T00:28:13;13.85;;;9.23;;
61308;SDS011;47188;55.644;37.772;2022-09-12T00:30:41;12.65;;;9.68;;
61308;SDS011;47188;55.644;37.772;2022-09-12T00:33:08;13.23;;;10.25;;
61308;SDS011;47188;55.644;37.772;2022-09-12T00:35:40;13.60;;;9.68;;
61308;SDS011;47188;55.644;37.772;2022-09-12T00:38:10;13.00;;;9.27;;
61308;SDS011;47188;55.644;37.772;2022-09-12T00:40:36;13.85;;;9.95;;
61308;SDS011;47188;55.644;37.772;2022-09-12T00:43:02;14.77;;;9.85;;
61308;SDS011;47188;55.644;37.772;2022-09-12T00:45:28;15.60;;;9.73;;
61308;SDS011;47188;55.644;37.772;2022-09-12T00:47:55;16.38;;;10.40;;
61308;SDS011;47188;55.644;37.772;2022-09-12T00:50:23;12.23;;;9.90;;
61308;SDS011;47188;55.644;37.772;2022-09-12T00:52:50;14.13;;;9.82;;
61308;SDS011;47188;55.644;37.772;2022-09-12T00:57:53;18.52;;;10.27;;
61308;SDS011;47188;55.644;37.772;2022-09-12T01:00:22;16.30;;;9.82;;
61308;SDS011;47188;55.644;37.772;2022-09-12T01:02:50;13.70;;;9.90;;
61308;SDS011;47188;55.644;37.772;2022-09-12T01:05:20;12.80;;;10.15;;
61308;SDS011;47188;55.644;37.772;2022-09-12T01:07:47;13.85;;;9.93;;
61308;SDS011;47188;55.644;37.772;2022-09-12T01:10:14;16.45;;;9.90;;
61308;SDS011;47188;55.644;37.772;2022-09-12T01:12:41;14.85;;;9.75;;
61308;SDS011;47188;55.644;37.772;2022-09-12T01:15:08;13.82;;;9.95;;
61308;SDS011;47188;55.644;37.772;2022-09-12T01:17:43;15.60;;;10.38;;
61308;SDS011;47188;55.644;37.772;2022-09-12T01:31:07;14.57;;;10.88;;
61308;SDS011;47188;55.644;37.772;2022-09-12T01:39:28;12.75;;;10.32;;
61308;SDS011;47188;55.644;37.772;2022-09-12T01:48:05;14.57;;;9.90;;
61308;SDS011;47188;55.644;37.772;2022-09-12T01:50:18;16.20;;;10.77;;
61308;SDS011;47188;55.644;37.772;2022-09-12T01:52:48;13.05;;;10.77;;
61308;SDS011;47188;55.644;37.772;2022-09-12T01:55:27;15.98;;;11.38;;
61308;SDS011;47188;55.644;37.772;2022-09-12T01:58:02;14.40;;;10.77;;
61308;SDS011;47188;55.644;37.772;2022-09-12T02:00:35;13.95;;;11.07;;
61308;SDS011;47188;55.644;37.772;2022-09-12T02:03:11;15.52;;;10.70;;
61308;SDS011;47188;55.644;37.772;2022-09-12T02:05:41;14.15;;;9.98;;
61308;SDS011;47188;55.644;37.772;2022-09-12T02:08:12;14.48;;;10.95;;
61308;SDS011;47188;55.644;37.772;2022-09-12T02:10:43;16.63;;;10.85;;
61308;SDS011;47188;55.644;37.772;2022-09-12T02:13:22;14.60;;;10.43;;
61308;SDS011;47188;55.644;37.772;2022-09-12T02:15:52;16.65;;;11.18;;
61308;SDS011;47188;55.644;37.772;2022-09-12T02:18:21;17.40;;;10.50;;
61308;SDS011;47188;55.644;37.772;2022-09-12T02:20:51;17.42;;;11.15;;
61308;SDS011;47188;55.644;37.772;2022-09-12T02:23:22;14.80;;;10.52;;
61308;SDS011;47188;55.644;37.772;2022-09-12T02:25:56;17.25;;;11.07;;
61308;SDS011;47188;55.644;37.772;2022-09-12T02:28:30;15.68;;;10.63;;
61308;SDS011;47188;55.644;37.772;2022-09-12T02:34:09;14.82;;;11.38;;
61308;SDS011;47188;55.644;37.772;2022-09-12T02:39:17;16.15;;;12.25;;
61308;SDS011;47188;55.644;37.772;2022-09-12T02:41:46;20.95;;;12.18;;
61308;SDS011;47188;55.644;37.772;2022-09-12T02:44:14;22.25;;;12.85;;
61308;SDS011;47188;55.644;37.772;2022-09-12T02:46:41;18.25;;;13.18;;
61308;SDS011;47188;55.644;37.772;2022-09-12T02:49:09;16.17;;;12.20;;
61308;SDS011;47188;55.644;37.772;2022-09-12T02:51:35;20.15;;;12.82;;
61308;SDS011;47188;55.644;37.772;2022-09-12T02:54:02;15.65;;;12.35;;
61308;SDS011;47188;55.644;37.772;2022-09-12T02:56:30;20.15;;;13.55;;
61308;SDS011;47188;55.644;37.772;2022-09-12T02:58:58;15.05;;;11.75;;
61308;SDS011;47188;55.644;37.772;2022-09-12T03:01:30;14.77;;;11.63;;
61308;SDS011;47188;55.644;37.772;2022-09-12T03:06:39;14.35;;;10.70;;
61308;SDS011;47188;55.644;37.772;2022-09-12T03:11:54;14.90;;;11.20;;
61308;SDS011;47188;55.644;37.772;2022-09-12T03:14:44;13.80;;;10.40;;
61308;SDS011;47188;55.644;37.772;2022-09-12T03:25:47;19.42;;;12.00;;
61308;SDS011;47188;55.644;37.772;2022-09-12T03:28:14;17.10;;;11.82;;
61308;SDS011;47188;55.644;37.772;2022-09-12T03:30:42;15.50;;;11.50;;
61308;SDS011;47188;55.644;37.772;2022-09-12T03:33:13;15.63;;;11.95;;
61308;SDS011;47188;55.644;37.772;2022-09-12T03:35:41;18.38;;;11.82;;
61308;SDS011;47188;55.644;37.772;2022-09-12T03:38:08;14.07;;;10.68;;
61308;SDS011;47188;55.644;37.772;2022-09-12T03:40:34;19.40;;;11.00;;
61308;SDS011;47188;55.644;37.772;2022-09-12T03:43:00;14.55;;;10.95;;
61308;SDS011;47188;55.644;37.772;2022-09-12T03:45:27;14.10;;;10.73;;
61308;SDS011;47188;55.644;37.772;2022-09-12T03:47:52;17.13;;;11.90;;
61308;SDS011;47188;55.644;37.772;2022-09-12T03:50:18;17.15;;;11.52;;
61308;SDS011;47188;55.644;37.772;2022-09-12T03:52:44;17.23;;;10.98;;
61308;SDS011;47188;55.644;37.772;2022-09-12T03:55:10;23.63;;;14.88;;
61308;SDS011;47188;55.644;37.772;2022-09-12T03:57:36;15.65;;;11.63;;
61308;SDS011;47188;55.644;37.772;2022-09-12T04:00:03;16.20;;;11.10;;
61308;SDS011;47188;55.644;37.772;2022-09-12T04:02:38;13.52;;;11.35;;
61308;SDS011;47188;55.644;37.772;2022-09-12T04:05:04;16.52;;;11.23;;
61308;SDS011;47188;55.644;37.772;2022-09-12T04:07:30;13.10;;;10.77;;
61308;SDS011;47188;55.644;37.772;2022-09-12T04:09:55;13.63;;;10.93;;
61308;SDS011;47188;55.644;37.772;2022-09-12T04:12:21;18.08;;;12.25;;
61308;SDS011;47188;55.644;37.772;2022-09-12T04:14:48;15.77;;;12.30;;
61308;SDS011;47188;55.644;37.772;2022-09-12T04:17:13;18.42;;;12.10;;
61308;SDS011;47188;55.644;37.772;2022-09-12T04:19:39;17.38;;;12.68;;
61308;SDS011;47188;55.644;37.772;2022-09-12T04:22:05;13.75;;;11.30;;
61308;SDS011;47188;55.644;37.772;2022-09-12T04:24:31;15.98;;;11.23;;
61308;SDS011;47188;55.644;37.772;2022-09-12T04:26:57;13.75;;;10.85;;
61308;SDS011;47188;55.644;37.772;2022-09-12T04:29:22;15.20;;;11.82;;
61308;SDS011;47188;55.644;37.772;2022-09-12T04:31:48;17.08;;;12.70;;
61308;SDS011;47188;55.644;37.772;2022-09-12T04:34:14;17.85;;;11.32;;
61308;SDS011;47188;55.644;37.772;2022-09-12T04:36:40;19.08;;;12.10;;
61308;SDS011;47188;55.644;37.772;2022-09-12T04:39:06;14.20;;;10.90;;
61308;SDS011;47188;55.644;37.772;2022-09-12T04:41:34;14.00;;;11.30;;
61308;SDS011;47188;55.644;37.772;2022-09-12T04:44:02;15.85;;;10.48;;
61308;SDS011;47188;55.644;37.772;2022-09-12T04:46:31;12.65;;;9.57;;
61308;SDS011;47188;55.644;37.772;2022-09-12T04:48:59;11.85;;;9.40;;
61308;SDS011;47188;55.644;37.772;2022-09-12T04:51:29;18.48;;;9.48;;
61308;SDS011;47188;55.644;37.772;2022-09-12T04:53:57;15.85;;;9.93;;
61308;SDS011;47188;55.644;37.772;2022-09-12T04:56:25;11.00;;;8.13;;
61308;SDS011;47188;55.644;37.772;2022-09-12T04:58:51;11.85;;;9.40;;
61308;SDS011;47188;55.644;37.772;2022-09-12T05:01:18;16.58;;;9.73;;
61308;SDS011;47188;55.644;37.772;2022-09-12T05:03:45;16.45;;;10.02;;
61308;SDS011;47188;55.644;37.772;2022-09-12T05:06:22;14.80;;;10.00;;
61308;SDS011;47188;55.644;37.772;2022-09-12T05:08:49;12.88;;;9.20;;
61308;SDS011;47188;55.644;37.772;2022-09-12T05:11:17;11.23;;;8.85;;
61308;SDS011;47188;55.644;37.772;2022-09-12T05:13:47;14.80;;;9.82;;
61308;SDS011;47188;55.644;37.772;2022-09-12T05:16:13;13.00;;;9.25;;
61308;SDS011;47188;55.644;37.772;2022-09-12T05:18:40;13.95;;;9.20;;
61308;SDS011;47188;55.644;37.772;2022-09-12T05:21:07;11.75;;;8.82;;
61308;SDS011;47188;55.644;37.772;2022-09-12T05:23:35;12.63;;;9.32;;
61308;SDS011;47188;55.644;37.772;2022-09-12T05:26:02;14.45;;;9.85;;
61308;SDS011;47188;55.644;37.772;2022-09-12T05:28:30;12.88;;;9.88;;
61308;SDS011;47188;55.644;37.772;2022-09-12T05:31:04;12.10;;;9.05;;
61308;SDS011;47188;55.644;37.772;2022-09-12T05:33:32;13.33;;;9.93;;
61308;SDS011;47188;55.644;37.772;2022-09-12T05:35:59;11.55;;;9.20;;
61308;SDS011;47188;55.644;37.772;2022-09-12T05:38:26;13.93;;;8.85;;
61308;SDS011;47188;55.644;37.772;2022-09-12T05:41:15;12.05;;;8.65;;
61308;SDS011;47188;55.644;37.772;2022-09-12T05:43:43;14.27;;;9.32;;
61308;SDS011;47188;55.644;37.772;2022-09-12T05:46:13;12.48;;;8.90;;
61308;SDS011;47188;55.644;37.772;2022-09-12T05:48:42;15.75;;;9.25;;
61308;SDS011;47188;55.644;37.772;2022-09-12T05:51:12;12.07;;;8.77;;
61308;SDS011;47188;55.644;37.772;2022-09-12T05:53:43;13.63;;;8.90;;
61308;SDS011;47188;55.644;37.772;2022-09-12T05:56:11;12.40;;;8.23;;
61308;SDS011;47188;55.644;37.772;2022-09-12T05:58:39;12.57;;;9.32;;
61308;SDS011;47188;55.644;37.772;2022-09-12T06:01:07;10.82;;;8.38;;
61308;SDS011;47188;55.644;37.772;2022-09-12T06:03:41;10.45;;;8.63;;
61308;SDS011;47188;55.644;37.772;2022-09-12T06:06:09;13.65;;;9.65;;
61308;SDS011;47188;55.644;37.772;2022-09-12T06:08:42;14.15;;;9.18;;
61308;SDS011;47188;55.644;37.772;2022-09-12T06:11:10;13.57;;;10.30;;
61308;SDS011;47188;55.644;37.772;2022-09-12T06:13:39;12.68;;;8.60;;
61308;SDS011;47188;55.644;37.772;2022-09-12T06:16:14;10.68;;;8.98;;
61308;SDS011;47188;55.644;37.772;2022-09-12T06:18:57;14.35;;;9.15;;
61308;SDS011;47188;55.644;37.772;2022-09-12T06:21:24;14.25;;;9.27;;
61308;SDS011;47188;55.644;37.772;2022-09-12T06:23:52;16.77;;;9.07;;
61308;SDS011;47188;55.644;37.772;2022-09-12T06:26:18;14.88;;;9.80;;
61308;SDS011;47188;55.644;37.772;2022-09-12T06:28:50;15.98;;;8.05;;
61308;SDS011;47188;55.644;37.772;2022-09-12T06:31:17;14.70;;;9.23;;
61308;SDS011;47188;55.644;37.772;2022-09-12T06:33:48;15.98;;;8.88;;
61308;SDS011;47188;55.644;37.772;2022-09-12T06:36:19;10.85;;;8.75;;
61308;SDS011;47188;55.644;37.772;2022-09-12T06:38:46;11.90;;;8.10;;
61308;SDS011;47188;55.644;37.772;2022-09-12T06:41:15;9.00;;;7.07;;
61308;SDS011;47188;55.644;37.772;2022-09-12T06:43:41;11.98;;;8.18;;
61308;SDS011;47188;55.644;37.772;2022-09-12T06:46:08;14.18;;;9.18;;
61308;SDS011;47188;55.644;37.772;2022-09-12T06:48:34;12.05;;;7.75;;
61308;SDS011;47188;55.644;37.772;2022-09-12T06:51:10;9.32;;;6.93;;
61308;SDS011;47188;55.644;37.772;2022-09-12T06:53:39;12.65;;;7.43;;
61308;SDS011;47188;55.644;37.772;2022-09-12T06:56:06;9.15;;;7.00;;
61308;SDS011;47188;55.644;37.772;2022-09-12T06:58:36;8.55;;;6.00;;
61308;SDS011;47188;55.644;37.772;2022-09-12T07:01:03;10.05;;;6.93;;
61308;SDS011;47188;55.644;37.772;2022-09-12T07:03:52;10.20;;;6.22;;
61308;SDS011;47188;55.644;37.772;2022-09-12T07:06:20;9.27;;;7.80;;
61308;SDS011;47188;55.644;37.772;2022-09-12T07:08:48;12.05;;;7.55;;
61308;SDS011;47188;55.644;37.772;2022-09-12T07:11:21;15.32;;;8.88;;
61308;SDS011;47188;55.644;37.772;2022-09-12T07:13:50;12.93;;;7.60;;
61308;SDS011;47188;55.644;37.772;2022-09-12T07:16:19;10.82;;;7.03;;
61308;SDS011;47188;55.644;37.772;2022-09-12T07:18:48;8.35;;;6.82;;
61308;SDS011;47188;55.644;37.772;2022-09-12T07:21:16;9.35;;;6.45;;
61308;SDS011;47188;55.644;37.772;2022-09-12T07:23:41;10.05;;;6.78;;
61308;SDS011;47188;55.644;37.772;2022-09-12T07:26:11;10.50;;;8.23;;
61308;SDS011;47188;55.644;37.772;2022-09-12T07:28:38;12.73;;;9.57;;
61308;SDS011;47188;55.644;37.772;2022-09-12T07:31:05;8.38;;;6.63;;
61308;SDS011;47188;55.644;37.772;2022-09-12T07:33:33;8.82;;;7.43;;
61308;SDS011;47188;55.644;37.772;2022-09-12T07:36:00;11.23;;;7.75;;
61308;SDS011;47188;55.644;37.772;2022-09-12T07:38:28;7.43;;;6.15;;
61308;SDS011;47188;55.644;37.772;2022-09-12T07:40:54;9.73;;;6.68;;
61308;SDS011;47188;55.644;37.772;2022-09-12T07:43:19;11.57;;;9.57;;
61308;SDS011;47188;55.644;37.772;2022-09-12T07:45:46;9.27;;;7.35;;
61308;SDS011;47188;55.644;37.772;2022-09-12T07:48:12;25.67;;;20.27;;
61308;SDS011;47188;55.644;37.772;2022-09-12T07:50:38;10.95;;;7.55;;
61308;SDS011;47188;55.644;37.772;2022-09-12T07:53:04;11.43;;;7.55;;
61308;SDS011;47188;55.644;37.772;2022-09-12T07:55:30;10.00;;;6.53;;
61308;SDS011;47188;55.644;37.772;2022-09-12T07:57:57;8.25;;;6.70;;
61308;SDS011;47188;55.644;37.772;2022-09-12T08:00:23;11.52;;;8.85;;
61308;SDS011;47188;55.644;37.772;2022-09-12T08:02:50;10.15;;;6.63;;
61308;SDS011;47188;55.644;37.772;2022-09-12T08:05:18;13.57;;;8.20;;
61308;SDS011;47188;55.644;37.772;2022-09-12T08:07:45;10.00;;;8.07;;
61308;SDS011;47188;55.644;37.772;2022-09-12T08:10:11;10.70;;;7.88;;
61308;SDS011;47188;55.644;37.772;2022-09-12T08:12:37;10.20;;;7.15;;
61308;SDS011;47188;55.644;37.772;2022-09-12T08:15:03;10.25;;;8.82;;
61308;SDS011;47188;55.644;37.772;2022-09-12T08:17:30;9.75;;;8.15;;
61308;SDS011;47188;55.644;37.772;2022-09-12T08:19:55;12.25;;;8.25;;
61308;SDS011;47188;55.644;37.772;2022-09-12T08:22:21;12.75;;;8.20;;
61308;SDS011;47188;55.644;37.772;2022-09-12T08:24:48;12.98;;;8.50;;
61308;SDS011;47188;55.644;37.772;2022-09-12T08:27:14;12.40;;;9.15;;
61308;SDS011;47188;55.644;37.772;2022-09-12T08:29:40;14.02;;;9.93;;
61308;SDS011;47188;55.644;37.772;2022-09-12T08:32:06;11.85;;;9.32;;
61308;SDS011;47188;55.644;37.772;2022-09-12T08:34:32;14.05;;;9.27;;
61308;SDS011;47188;55.644;37.772;2022-09-12T08:36:58;14.95;;;10.10;;
61308;SDS011;47188;55.644;37.772;2022-09-12T08:39:24;13.32;;;9.70;;
61308;SDS011;47188;55.644;37.772;2022-09-12T08:41:57;12.68;;;8.95;;
61308;SDS011;47188;55.644;37.772;2022-09-12T08:55:15;12.35;;;9.23;;
61308;SDS011;47188;55.644;37.772;2022-09-12T08:57:52;16.38;;;10.00;;
61308;SDS011;47188;55.644;37.772;2022-09-12T09:00:18;14.68;;;10.05;;
61308;SDS011;47188;55.644;37.772;2022-09-12T09:08:54;17.30;;;11.20;;
61308;SDS011;47188;55.644;37.772;2022-09-12T09:11:52;16.63;;;10.57;;
61308;SDS011;47188;55.644;37.772;2022-09-12T09:14:44;21.58;;;13.75;;
61308;SDS011;47188;55.644;37.772;2022-09-12T09:22:50;22.33;;;15.45;;
61308;SDS011;47188;55.644;37.772;2022-09-12T09:25:18;19.23;;;11.75;;
61308;SDS011;47188;55.644;37.772;2022-09-12T09:30:25;22.42;;;13.23;;
61308;SDS011;47188;55.644;37.772;2022-09-12T09:32:54;19.77;;;14.02;;
61308;SDS011;47188;55.644;37.772;2022-09-12T09:37:53;25.77;;;16.30;;
61308;SDS011;47188;55.644;37.772;2022-09-12T09:40:31;21.88;;;14.70;;
61308;SDS011;47188;55.644;37.772;2022-09-12T09:43:05;30.13;;;17.17;;
61308;SDS011;47188;55.644;37.772;2022-09-12T09:45:58;26.05;;;15.68;;
61308;SDS011;47188;55.644;37.772;2022-09-12T09:48:28;22.52;;;15.82;;
61308;SDS011;47188;55.644;37.772;2022-09-12T09:50:59;32.67;;;18.27;;
61308;SDS011;47188;55.644;37.772;2022-09-12T09:58:48;24.45;;;16.08;;
61308;SDS011;47188;55.644;37.772;2022-09-12T10:01:15;27.60;;;19.80;;
61308;SDS011;47188;55.644;37.772;2022-09-12T10:03:51;28.40;;;16.38;;
61308;SDS011;47188;55.644;37.772;2022-09-12T10:08:47;26.10;;;16.95;;
61308;SDS011;47188;55.644;37.772;2022-09-12T10:11:17;25.23;;;17.27;;
61308;SDS011;47188;55.644;37.772;2022-09-12T10:13:55;31.85;;;18.90;;
61308;SDS011;47188;55.644;37.772;2022-09-12T10:18:55;29.13;;;20.42;;
61308;SDS011;47188;55.644;37.772;2022-09-12T10:21:30;25.67;;;17.83;;
61308;SDS011;47188;55.644;37.772;2022-09-12T10:26:37;24.98;;;14.68;;
61308;SDS011;47188;55.644;37.772;2022-09-12T10:29:13;29.58;;;19.90;;
61308;SDS011;47188;55.644;37.772;2022-09-12T10:31:42;34.47;;;19.70;;
61308;SDS011;47188;55.644;37.772;2022-09-12T10:34:21;26.45;;;18.58;;
61308;SDS011;47188;55.644;37.772;2022-09-12T10:36:51;28.80;;;18.83;;
61308;SDS011;47188;55.644;37.772;2022-09-12T10:39:19;27.33;;;17.50;;
61308;SDS011;47188;55.644;37.772;2022-09-12T10:41:45;27.77;;;19.15;;
61308;SDS011;47188;55.644;37.772;2022-09-12T10:44:22;27.95;;;18.52;;
61308;SDS011;47188;55.644;37.772;2022-09-12T10:46:54;32.35;;;19.08;;
61308;SDS011;47188;55.644;37.772;2022-09-12T10:49:21;24.98;;;17.33;;
61308;SDS011;47188;55.644;37.772;2022-09-12T10:51:49;25.45;;;17.35;;
61308;SDS011;47188;55.644;37.772;2022-09-12T10:54:17;29.27;;;18.77;;
61308;SDS011;47188;55.644;37.772;2022-09-12T11:10:39;28.13;;;17.98;;
61308;SDS011;47188;55.644;37.772;2022-09-12T11:18:32;30.35;;;17.88;;
61308;SDS011;47188;55.644;37.772;2022-09-12T11:21:22;28.35;;;17.25;;
61308;SDS011;47188;55.644;37.772;2022-09-12T11:29:25;27.23;;;18.33;;
61308;SDS011;47188;55.644;37.772;2022-09-12T11:37:29;27.50;;;18.10;;
61308;SDS011;47188;55.644;37.772;2022-09-12T11:40:15;24.67;;;15.93;;
61308;SDS011;47188;55.644;37.772;2022-09-12T11:42:52;108.63;;;80.63;;
61308;SDS011;47188;55.644;37.772;2022-09-12T11:45:28;33.90;;;23.45;;
61308;SDS011;47188;55.644;37.772;2022-09-12T11:48:02;27.75;;;17.60;;
61308;SDS011;47188;55.644;37.772;2022-09-12T11:50:32;28.02;;;17.73;;
61308;SDS011;47188;55.644;37.772;2022-09-12T11:53:06;49.05;;;31.38;;
61308;SDS011;47188;55.644;37.772;2022-09-12T11:58:26;33.33;;;20.45;;
61308;SDS011;47188;55.644;37.772;2022-09-12T12:01:00;26.58;;;16.40;;
61308;SDS011;47188;55.644;37.772;2022-09-12T12:03:41;26.00;;;17.73;;
61308;SDS011;47188;55.644;37.772;2022-09-12T12:06:15;25.02;;;16.58;;
61308;SDS011;47188;55.644;37.772;2022-09-12T12:08:46;25.98;;;16.65;;
61308;SDS011;47188;55.644;37.772;2022-09-12T12:11:14;24.50;;;15.40;;
61308;SDS011;47188;55.644;37.772;2022-09-12T12:13:51;24.92;;;15.57;;
61308;SDS011;47188;55.644;37.772;2022-09-12T12:16:22;22.50;;;15.40;;
61308;SDS011;47188;55.644;37.772;2022-09-12T12:18:54;25.98;;;15.00;;
61308;SDS011;47188;55.644;37.772;2022-09-12T12:37:47;21.63;;;13.40;;
61308;SDS011;47188;55.644;37.772;2022-09-12T12:39:54;21.60;;;13.05;;
61308;SDS011;47188;55.644;37.772;2022-09-12T12:45:00;21.10;;;12.63;;
61308;SDS011;47188;55.644;37.772;2022-09-12T12:47:26;18.13;;;11.50;;
61308;SDS011;47188;55.644;37.772;2022-09-12T12:52:31;16.20;;;10.93;;
61308;SDS011;47188;55.644;37.772;2022-09-12T12:55:12;19.33;;;12.07;;
61308;SDS011;47188;55.644;37.772;2022-09-12T12:57:44;15.80;;;11.52;;
61308;SDS011;47188;55.644;37.772;2022-09-12T13:00:35;17.80;;;11.25;;
61308;SDS011;47188;55.644;37.772;2022-09-12T13:05:30;17.15;;;9.52;;
61308;SDS011;47188;55.644;37.772;2022-09-12T13:08:30;15.25;;;9.52;;
61308;SDS011;47188;55.644;37.772;2022-09-12T13:11:13;16.88;;;9.88;;
61308;SDS011;47188;55.644;37.772;2022-09-12T13:16:33;15.25;;;9.27;;
61308;SDS011;47188;55.644;37.772;2022-09-12T13:19:01;13.25;;;9.00;;
61308;SDS011;47188;55.644;37.772;2022-09-12T13:21:29;15.60;;;8.75;;
61308;SDS011;47188;55.644;37.772;2022-09-12T13:24:10;12.02;;;7.63;;
61308;SDS011;47188;55.644;37.772;2022-09-12T13:26:42;15.88;;;8.20;;
61308;SDS011;47188;55.644;37.772;2022-09-12T13:29:13;16.75;;;8.63;;
61308;SDS011;47188;55.644;37.772;2022-09-12T13:31:41;11.77;;;7.80;;
61308;SDS011;47188;55.644;37.772;2022-09-12T13:34:08;11.18;;;7.55;;
61308;SDS011;47188;55.644;37.772;2022-09-12T13:36:44;12.23;;;7.70;;
61308;SDS011;47188;55.644;37.772;2022-09-12T13:39:34;11.20;;;7.57;;
61308;SDS011;47188;55.644;37.772;2022-09-12T13:42:19;9.85;;;6.93;;
61308;SDS011;47188;55.644;37.772;2022-09-12T13:47:50;12.52;;;7.70;;
61308;SDS011;47188;55.644;37.772;2022-09-12T13:53:06;9.35;;;6.55;;
61308;SDS011;47188;55.644;37.772;2022-09-12T13:55:39;8.60;;;5.82;;
61308;SDS011;47188;55.644;37.772;2022-09-12T14:01:36;8.75;;;5.75;;
61308;SDS011;47188;55.644;37.772;2022-09-12T14:04:25;7.05;;;5.55;;
61308;SDS011;47188;55.644;37.772;2022-09-12T14:07:16;7.95;;;5.55;;
61308;SDS011;47188;55.644;37.772;2022-09-12T14:09:53;11.00;;;5.78;;
61308;SDS011;47188;55.644;37.772;2022-09-12T14:14:49;9.80;;;5.43;;
61308;SDS011;47188;55.644;37.772;2022-09-12T14:20:07;10.43;;;5.07;;
61308;SDS011;47188;55.644;37.772;2022-09-12T14:22:38;8.60;;;5.20;;
61308;SDS011;47188;55.644;37.772;2022-09-12T14:25:05;8.52;;;5.43;;
61308;SDS011;47188;55.644;37.772;2022-09-12T14:27:40;8.20;;;5.35;;
61308;SDS011;47188;55.644;37.772;2022-09-12T14:30:56;8.80;;;5.10;;
61308;SDS011;47188;55.644;37.772;2022-09-12T14:33:01;6.72;;;4.50;;
61308;SDS011;47188;55.644;37.772;2022-09-12T14:35:37;7.07;;;4.88;;
61308;SDS011;47188;55.644;37.772;2022-09-12T14:38:06;8.52;;;3.90;;
61308;SDS011;47188;55.644;37.772;2022-09-12T14:40:42;7.20;;;5.20;;
61308;SDS011;47188;55.644;37.772;2022-09-12T14:43:17;5.93;;;4.38;;
61308;SDS011;47188;55.644;37.772;2022-09-12T14:45:57;4.57;;;3.83;;
61308;SDS011;47188;55.644;37.772;2022-09-12T14:48:29;7.50;;;5.03;;
61308;SDS011;47188;55.644;37.772;2022-09-12T14:50:57;5.93;;;4.40;;
61308;SDS011;47188;55.644;37.772;2022-09-12T14:53:24;7.32;;;4.72;;
61308;SDS011;47188;55.644;37.772;2022-09-12T14:56:08;9.32;;;4.72;;
61308;SDS011;47188;55.644;37.772;2022-09-12T14:58:36;6.25;;;4.85;;
61308;SDS011;47188;55.644;37.772;2022-09-12T15:03:33;5.90;;;4.32;;
61308;SDS011;47188;55.644;37.772;2022-09-12T15:06:01;10.40;;;5.10;;
61308;SDS011;47188;55.644;37.772;2022-09-12T15:08:29;9.27;;;4.93;;
61308;SDS011;47188;55.644;37.772;2022-09-12T15:10:56;8.15;;;5.25;;
61308;SDS011;47188;55.644;37.772;2022-09-12T15:13:23;6.43;;;4.95;;
61308;SDS011;47188;55.644;37.772;2022-09-12T15:18:20;4.15;;;3.38;;
61308;SDS011;47188;55.644;37.772;2022-09-12T15:20:49;8.88;;;4.95;;
61308;SDS011;47188;55.644;37.772;2022-09-12T15:23:18;11.07;;;5.05;;
61308;SDS011;47188;55.644;37.772;2022-09-12T15:25:51;8.18;;;4.07;;
61308;SDS011;47188;55.644;37.772;2022-09-12T15:28:18;8.85;;;4.28;;
61308;SDS011;47188;55.644;37.772;2022-09-12T15:30:45;7.63;;;4.15;;
61308;SDS011;47188;55.644;37.772;2022-09-12T15:33:13;7.47;;;3.75;;
61308;SDS011;47188;55.644;37.772;2022-09-12T15:35:40;6.82;;;3.95;;
61308;SDS011;47188;55.644;37.772;2022-09-12T15:38:06;5.55;;;3.53;;
61308;SDS011;47188;55.644;37.772;2022-09-12T15:40:32;5.85;;;3.60;;
61308;SDS011;47188;55.644;37.772;2022-09-12T15:42:58;7.47;;;3.90;;
61308;SDS011;47188;55.644;37.772;2022-09-12T15:45:31;8.50;;;3.97;;
61308;SDS011;47188;55.644;37.772;2022-09-12T15:47:58;6.55;;;4.57;;
61308;SDS011;47188;55.644;37.772;2022-09-12T15:50:25;12.25;;;7.43;;
61308;SDS011;47188;55.644;37.772;2022-09-12T15:52:53;8.93;;;4.28;;
61308;SDS011;47188;55.644;37.772;2022-09-12T15:55:20;7.63;;;4.75;;
61308;SDS011;47188;55.644;37.772;2022-09-12T15:57:48;6.53;;;3.78;;
61308;SDS011;47188;55.644;37.772;2022-09-12T16:00:15;7.03;;;3.60;;
61308;SDS011;47188;55.644;37.772;2022-09-12T16:02:42;9.10;;;3.33;;
61308;SDS011;47188;55.644;37.772;2022-09-12T16:05:11;5.97;;;3.60;;
61308;SDS011;47188;55.644;37.772;2022-09-12T16:07:41;6.70;;;3.50;;
61308;SDS011;47188;55.644;37.772;2022-09-12T16:10:08;8.23;;;3.83;;
61308;SDS011;47188;55.644;37.772;2022-09-12T16:12:39;7.25;;;3.55;;
61308;SDS011;47188;55.644;37.772;2022-09-12T16:15:05;11.02;;;3.75;;
61308;SDS011;47188;55.644;37.772;2022-09-12T16:17:31;5.28;;;3.53;;
61308;SDS011;47188;55.644;37.772;2022-09-12T16:19:57;9.20;;;3.80;;
61308;SDS011;47188;55.644;37.772;2022-09-12T16:22:25;3.80;;;3.40;;
61308;SDS011;47188;55.644;37.772;2022-09-12T16:24:51;5.82;;;3.60;;
61308;SDS011;47188;55.644;37.772;2022-09-12T16:27:17;5.70;;;3.65;;
61308;SDS011;47188;55.644;37.772;2022-09-12T16:29:44;4.07;;;3.35;;
61308;SDS011;47188;55.644;37.772;2022-09-12T16:32:09;7.80;;;3.60;;
61308;SDS011;47188;55.644;37.772;2022-09-12T16:34:35;6.90;;;3.45;;
61308;SDS011;47188;55.644;37.772;2022-09-12T16:37:01;7.35;;;3.72;;
61308;SDS011;47188;55.644;37.772;2022-09-12T16:39:28;6.85;;;4.10;;
61308;SDS011;47188;55.644;37.772;2022-09-12T16:41:54;5.20;;;3.67;;
61308;SDS011;47188;55.644;37.772;2022-09-12T16:44:20;4.72;;;3.10;;
61308;SDS011;47188;55.644;37.772;2022-09-12T16:46:46;3.53;;;2.90;;
61308;SDS011;47188;55.644;37.772;2022-09-12T16:49:12;6.00;;;3.70;;
61308;SDS011;47188;55.644;37.772;2022-09-12T16:51:38;7.32;;;3.78;;
61308;SDS011;47188;55.644;37.772;2022-09-12T16:54:08;7.47;;;3.83;;
61308;SDS011;47188;55.644;37.772;2022-09-12T16:56:34;6.45;;;3.70;;
61308;SDS011;47188;55.644;37.772;2022-09-12T16:58:59;6.35;;;4.00;;
61308;SDS011;47188;55.644;37.772;2022-09-12T17:01:25;6.40;;;4.00;;
61308;SDS011;47188;55.644;37.772;2022-09-12T17:03:55;5.82;;;3.58;;
61308;SDS011;47188;55.644;37.772;2022-09-12T17:06:22;8.55;;;3.88;;
61308;SDS011;47188;55.644;37.772;2022-09-12T17:08:50;3.95;;;3.15;;
61308;SDS011;47188;55.644;37.772;2022-09-12T17:11:20;4.35;;;3.42;;
61308;SDS011;47188;55.644;37.772;2022-09-12T17:13:54;5.38;;;3.85;;
61308;SDS011;47188;55.644;37.772;2022-09-12T17:16:21;4.53;;;3.20;;
61308;SDS011;47188;55.644;37.772;2022-09-12T17:18:48;12.40;;;9.95;;